Metar z połowy godziny Komunikat METAR ze strony awiacja.imgw.pl Metar Mil EPOK METAR EPOK 271500Z 28006KT 7000 -RA BKN016 OVC028 02/01 Q0995 RMK 020 096 8/6=